METAR Data
IDs: Format: Raw Decoded Include TAF

Data at: 0123 UTC 24 Sep 2018

KAQO 240115Z AUTO 00000KT 10SM SCT023 OVC029 A2994 RMK AO2
KAQO 240055Z AUTO 32004KT 10SM OVC021 22/19 A2995 RMK AO2
KAQO 240035Z AUTO 33003KT 10SM OVC017 22/19 A2994 RMK AO2
KAQO 240015Z AUTO 33005KT 10SM OVC017 22/19 A2995 RMK AO2
KAQO 232355Z AUTO 33007KT 10SM OVC019 22/19 A2995 RMK AO2
KAQO 232335Z AUTO 35004KT 10SM BKN023 OVC028 22/19 A2994 RMK AO2
KAQO 232315Z AUTO 01006KT 10SM SCT018 OVC025 22/19 A2994 RMK AO2
KAQO 232255Z AUTO 01006KT 10SM OVC018 23/19 A2995 RMK AO2
KAQO 232235Z AUTO 36005KT 10SM BKN020 OVC026 23/19 A2995 RMK AO2
KAQO 232215Z AUTO 01005KT 10SM BKN022 OVC026 23/19 A2995 RMK AO2
KAQO 232155Z AUTO 34008KT 10SM OVC020 23/19 A2995 RMK AO2
KAQO 232135Z AUTO 34006KT 10SM OVC022 23/19 A2995 RMK AO2
KAQO 232115Z AUTO 35006KT 10SM OVC022 23/18 A2995 RMK AO2
KAQO 232055Z AUTO 34007KT 10SM OVC020 23/18 A2996 RMK AO2
KAQO 232035Z AUTO 32006KT 10SM OVC022 23/19 A2996 RMK AO2
KAQO 232015Z AUTO 35008KT 10SM OVC022 23/18 A2997 RMK AO2
KAQO 231955Z AUTO 33009KT 10SM BKN022 OVC028 23/18 A2997 RMK AO2
KAQO 231935Z AUTO 36005KT 10SM BKN022 OVC028 23/19 A2998 RMK AO2
KAQO 231915Z AUTO 35007KT 040V040 10SM SCT019 OVC026 23/19 A2999 RMK AO2
KAQO 231855Z AUTO 34010KT 9SM BKN019 OVC025 23/19 A3000 RMK AO2
KAQO 231835Z AUTO 31004KT 10SM FEW017 OVC023 22/19 A3001 RMK AO2
KAQO 231815Z AUTO 34010KT 10SM SCT019 OVC025 23/18 A3001 RMK AO2
KAQO 231755Z AUTO 34006KT 9SM OVC021 22/18 A3002 RMK AO2
KAQO 231735Z AUTO 33009KT 10SM OVC021 22/18 A3001 RMK AO2
KAQO 231715Z AUTO 35007KT 10SM SCT016 OVC023 22/18 A3002 RMK AO2
KAQO 231655Z AUTO 33007KT 10SM BKN021 OVC025 22/18 A3002 RMK AO2
KAQO 231635Z AUTO 32010KT 10SM BKN019 OVC027 22/18 A3002 RMK AO2
KAQO 231615Z AUTO 34007KT 10SM BKN015 BKN023 OVC031 22/18 A3003 RMK AO2
KAQO 231555Z AUTO 34006KT 10SM BKN018 BKN024 OVC028 22/18 A3003 RMK AO2
KAQO 231535Z AUTO 35006KT 10SM SCT015 BKN021 OVC027 22/18 A3002 RMK AO2
KAQO 231515Z AUTO 35007KT 10SM SCT012 BKN018 21/18 A3002 RMK AO2
KAQO 231455Z AUTO 32008KT 10SM OVC015 21/18 A3002 RMK AO2
KAQO 231435Z AUTO 32005KT 10SM OVC013 20/18 A3001 RMK AO2
KAQO 231415Z AUTO 31004KT 9SM FEW008 OVC013 20/18 A3001 RMK AO2
KAQO 231355Z AUTO 33004KT 10SM BKN017 OVC050 20/18 A3001 RMK AO2
KAQO 231335Z AUTO 32005KT 10SM BKN017 OVC046 20/18 A3000 RMK AO2
KAQO 231315Z AUTO 32004KT 10SM SCT017 BKN046 19/18 A3000 RMK AO2
KAQO 231255Z AUTO 32004KT 10SM FEW003 SCT009 BKN024 19/19 A2999 RMK AO2
KAQO 231235Z AUTO 00000KT 1 1/4SM BR BKN003 OVC011 19/18 A2999 RMK AO2
KAQO 231215Z AUTO 00000KT 1 1/2SM BR OVC011 19/18 A2998 RMK AO2
KAQO 231155Z AUTO 32005KT 3SM BR FEW001 BKN011 OVC017 19/18 A2998 RMK AO2
KAQO 231135Z AUTO 00000KT 4SM BR FEW001 BKN011 OVC017 19/18 A2998 RMK AO2
KAQO 231115Z AUTO 00000KT 5SM BR FEW001 BKN011 OVC023 19/18 A2997 RMK AO2
KAQO 231055Z AUTO 00000KT 10SM BKN015 OVC025 19/18 A2997 RMK AO2
KAQO 231035Z AUTO 00000KT 10SM SCT018 OVC027 19/18 A2996 RMK AO2
KAQO 231015Z AUTO 32004KT 10SM BKN014 BKN021 OVC035 20/18 A2996 RMK AO2
KAQO 230955Z AUTO 00000KT 10SM OVC014 20/18 A2996 RMK AO2
KAQO 230935Z AUTO 31004KT 10SM OVC016 20/18 A2997 RMK AO2
KAQO 230915Z AUTO 00000KT 10SM OVC014 19/18 A2997 RMK AO2
KAQO 230900Z AUTO 00000KT 10SM OVC014 19/18 A2997 RMK AO2
KAQO 230835Z AUTO 32003KT 10SM SCT014 BKN025 OVC030 19/18 A2998 RMK AO2
KAQO 230815Z AUTO 31003KT 10SM SCT006 BKN014 OVC025 19/19 A2998 RMK AO2
KAQO 230755Z AUTO 00000KT 10SM BKN008 OVC012 19/19 A2999 RMK AO2
KAQO 230735Z AUTO 00000KT 10SM BKN014 OVC019 19/18 A2999 RMK AO2
KAQO 230715Z AUTO 25003KT 10SM OVC014 19/18 A3000 RMK AO2
KAQO 230655Z AUTO 00000KT 10SM OVC012 19/18 A3000 RMK AO2
KAQO 230635Z AUTO 00000KT 10SM OVC014 19/18 A3000 RMK AO2
KAQO 230615Z AUTO 00000KT 10SM OVC018 19/18 A3000 RMK AO2
KAQO 230555Z AUTO 00000KT 10SM BKN018 OVC023 19/18 A3001 RMK AO2
KAQO 230535Z AUTO 26004KT 10SM SCT014 OVC020 19/18 A3001 RMK AO2
KAQO 230515Z AUTO 25004KT 8SM OVC014 19/18 A3001 RMK AO2
KAQO 230455Z AUTO 26005KT 10SM OVC014 19/18 A3002 RMK AO2
KAQO 230435Z AUTO 00000KT 7SM SCT010 OVC016 19/18 A3003 RMK AO2
KAQO 230415Z AUTO 00000KT 8SM BKN010 OVC014 19/18 A3003 RMK AO2
KAQO 230355Z AUTO 28004KT 10SM OVC014 19/18 A3003 RMK AO2
KAQO 230335Z AUTO 00000KT 10SM OVC014 20/17 A3003 RMK AO2
KAQO 230315Z AUTO 27003KT 10SM OVC014 20/17 A3003 RMK AO2
KAQO 230255Z AUTO 29004KT 10SM BKN016 OVC024 20/17 A3003 RMK AO2
KAQO 230235Z AUTO 30004KT 10SM SCT016 OVC024 20/17 A3003 RMK AO2
KAQO 230215Z AUTO 28003KT 10SM BKN018 OVC024 20/17 A3003 RMK AO2
KAQO 230155Z AUTO 00000KT 10SM BKN018 OVC024 19/17 A3002 RMK AO2
KAQO 230135Z AUTO 00000KT 10SM OVC022 19/17 A3002 RMK AO2
KAQO 230115Z AUTO 29006KT 10SM SCT019 OVC026 20/17 A3001 RMK AO2
KAQO 230055Z AUTO 30005KT 10SM BKN018 OVC026 20/17 A3001 RMK AO2
KAQO 230035Z AUTO 30004KT 10SM OVC020 20/17 A3001 RMK AO2
KAQO 230015Z AUTO 31007KT 10SM OVC020 20/17 A3001 RMK AO2
KAQO 222355Z AUTO 31007KT 10SM BKN017 OVC025 20/17 A3001 RMK AO2
KAQO 222335Z AUTO 32007KT 10SM BKN019 OVC024 20/17 A3001 RMK AO2
KAQO 222315Z AUTO 33008KT 10SM OVC019 21/17 A3001 RMK AO2
KAQO 222255Z AUTO 31005KT 10SM OVC019 20/17 A3001 RMK AO2
KAQO 222235Z AUTO 32006KT 10SM OVC019 20/16 A3001 RMK AO2
KAQO 222215Z AUTO 31010KT 10SM OVC017 20/16 A3001 RMK AO2
KAQO 222155Z AUTO 33008KT 030V040 10SM OVC017 20/16 A3001 RMK AO2 LTG DSNT SW
KAQO 222135Z AUTO 31009KT 10SM OVC017 20/16 A3001 RMK AO2
KAQO 222115Z AUTO 33009G15KT 10SM OVC017 21/16 A3001 RMK AO2
KAQO 222055Z AUTO 32012G16KT 10SM OVC017 21/16 A3001 RMK AO2
KAQO 222035Z AUTO 33011KT 10SM OVC017 21/17 A3001 RMK AO2
KAQO 222015Z AUTO 33011KT 10SM OVC017 21/16 A3001 RMK AO2
KAQO 221955Z AUTO 32010KT 10SM OVC017 20/17 A3002 RMK AO2
KAQO 221935Z AUTO 33011KT 10SM OVC017 21/17 A3003 RMK AO2
KAQO 221915Z AUTO 33013G16KT 10SM OVC015 20/16 A3004 RMK AO2
KAQO 221855Z AUTO 31012KT 10SM OVC013 20/16 A3004 RMK AO2
KAQO 221835Z AUTO 29010KT 10SM OVC015 20/16 A3005 RMK AO2
KAQO 221815Z AUTO 32012KT 10SM OVC015 20/17 A3006 RMK AO2
KAQO 221755Z AUTO 31012KT 10SM OVC015 20/17 A3006 RMK AO2 LTG DSNT NE
KAQO 221735Z AUTO 33013KT 10SM OVC015 21/17 A3006 RMK AO2
KAQO 221715Z AUTO 32012KT 10SM OVC015 21/17 A3006 RMK AO2
KAQO 221655Z AUTO 32013KT 10SM OVC015 20/17 A3006 RMK AO2
KAQO 221635Z AUTO 33012KT 10SM OVC015 20/17 A3007 RMK AO2
KAQO 221615Z AUTO 32011KT 10SM OVC015 20/17 A3007 RMK AO2
KAQO 221555Z AUTO 31010G15KT 10SM OVC015 19/16 A3006 RMK AO2
KAQO 221535Z AUTO 32013KT 10SM OVC015 19/16 A3006 RMK AO2
KAQO 221515Z AUTO 31010KT 10SM OVC015 19/17 A3006 RMK AO2
KAQO 221455Z AUTO 32009KT 10SM OVC015 19/16 A3006 RMK AO2
KAQO 221435Z AUTO 31010KT 10SM OVC015 19/16 A3005 RMK AO2
KAQO 221415Z AUTO 31010G15KT 10SM OVC013 19/16 A3005 RMK AO2
KAQO 221355Z AUTO 30006KT 10SM OVC013 18/16 A3005 RMK AO2
KAQO 221335Z AUTO 31009KT 10SM OVC013 18/16 A3004 RMK AO2